sensor_id;sensor_type;location;lat;lon;timestamp;pressure;altitude;pressure_sealevel;temperature;humidity
32761;BME280;19126;47.472;7.850;2023-06-26T00:02:19;96706.84;;;16.36;100.00
32761;BME280;19126;47.472;7.850;2023-06-26T00:04:47;96709.66;;;16.34;100.00
32761;BME280;19126;47.472;7.850;2023-06-26T00:07:14;96711.53;;;16.34;99.00
32761;BME280;19126;47.472;7.850;2023-06-26T00:09:41;96709.91;;;16.33;98.49
32761;BME280;19126;47.472;7.850;2023-06-26T00:12:10;96715.81;;;16.28;96.95
32761;BME280;19126;47.472;7.850;2023-06-26T00:14:37;96706.44;;;16.25;96.74
32761;BME280;19126;47.472;7.850;2023-06-26T00:17:05;96711.34;;;16.22;96.40
32761;BME280;19126;47.472;7.850;2023-06-26T00:19:32;96709.94;;;16.19;96.58
32761;BME280;19126;47.472;7.850;2023-06-26T00:21:59;96706.47;;;16.19;95.64
32761;BME280;19126;47.472;7.850;2023-06-26T00:24:27;96707.09;;;16.14;96.49
32761;BME280;19126;47.472;7.850;2023-06-26T00:26:54;96706.06;;;16.08;95.79
32761;BME280;19126;47.472;7.850;2023-06-26T00:29:23;96709.75;;;16.07;94.58
32761;BME280;19126;47.472;7.850;2023-06-26T00:31:50;96711.00;;;16.05;94.87
32761;BME280;19126;47.472;7.850;2023-06-26T00:34:17;96707.72;;;16.03;94.17
32761;BME280;19126;47.472;7.850;2023-06-26T00:36:45;96708.94;;;16.00;93.72
32761;BME280;19126;47.472;7.850;2023-06-26T00:39:12;96705.69;;;15.98;93.42
32761;BME280;19126;47.472;7.850;2023-06-26T00:41:40;96707.13;;;15.94;93.04
32761;BME280;19126;47.472;7.850;2023-06-26T00:44:07;96709.75;;;15.94;92.43
32761;BME280;19126;47.472;7.850;2023-06-26T00:46:36;96711.00;;;15.91;92.89
32761;BME280;19126;47.472;7.850;2023-06-26T00:49:04;96699.78;;;15.89;92.17
32761;BME280;19126;47.472;7.850;2023-06-26T00:51:31;96711.38;;;15.88;92.26
32761;BME280;19126;47.472;7.850;2023-06-26T00:53:59;96702.00;;;15.86;92.08
32761;BME280;19126;47.472;7.850;2023-06-26T00:56:27;96712.19;;;15.82;90.65
32761;BME280;19126;47.472;7.850;2023-06-26T00:58:55;96706.50;;;15.78;90.94
32761;BME280;19126;47.472;7.850;2023-06-26T01:01:22;96711.78;;;15.78;89.73
32761;BME280;19126;47.472;7.850;2023-06-26T01:03:53;96706.69;;;15.77;89.00
32761;BME280;19126;47.472;7.850;2023-06-26T01:06:23;96715.66;;;15.76;88.21
32761;BME280;19126;47.472;7.850;2023-06-26T01:08:51;96714.03;;;15.75;88.97
32761;BME280;19126;47.472;7.850;2023-06-26T01:11:19;96708.13;;;15.73;88.06
32761;BME280;19126;47.472;7.850;2023-06-26T01:13:47;96705.88;;;15.70;87.71
32761;BME280;19126;47.472;7.850;2023-06-26T01:16:17;96707.50;;;15.71;87.68
32761;BME280;19126;47.472;7.850;2023-06-26T01:18:46;96701.59;;;15.68;88.42
32761;BME280;19126;47.472;7.850;2023-06-26T01:21:16;96702.44;;;15.69;87.32
32761;BME280;19126;47.472;7.850;2023-06-26T01:23:58;96698.34;;;15.66;88.64
32761;BME280;19126;47.472;7.850;2023-06-26T01:26:32;96702.22;;;15.64;87.63
32761;BME280;19126;47.472;7.850;2023-06-26T01:29:04;96701.81;;;15.60;87.76
32761;BME280;19126;47.472;7.850;2023-06-26T01:31:34;96698.53;;;15.58;88.04
32761;BME280;19126;47.472;7.850;2023-06-26T01:34:02;96701.59;;;15.55;87.84
32761;BME280;19126;47.472;7.850;2023-06-26T01:36:30;96698.34;;;15.53;86.27
32761;BME280;19126;47.472;7.850;2023-06-26T01:38:57;96700.19;;;15.52;85.36
32761;BME280;19126;47.472;7.850;2023-06-26T01:41:24;96699.59;;;15.50;86.37
32761;BME280;19126;47.472;7.850;2023-06-26T01:44:23;96693.88;;;15.47;85.66
32761;BME280;19126;47.472;7.850;2023-06-26T01:47:00;96694.28;;;15.44;85.06
32761;BME280;19126;47.472;7.850;2023-06-26T01:49:38;96695.28;;;15.43;86.47
32761;BME280;19126;47.472;7.850;2023-06-26T01:52:16;96697.31;;;15.41;86.14
32761;BME280;19126;47.472;7.850;2023-06-26T01:54:54;96689.78;;;15.37;85.07
32761;BME280;19126;47.472;7.850;2023-06-26T01:57:23;96694.28;;;15.37;85.74
32761;BME280;19126;47.472;7.850;2023-06-26T01:59:55;96696.50;;;15.33;84.36
32761;BME280;19126;47.472;7.850;2023-06-26T02:02:24;96695.09;;;15.31;83.89
32761;BME280;19126;47.472;7.850;2023-06-26T02:04:51;96702.41;;;15.29;83.64
32761;BME280;19126;47.472;7.850;2023-06-26T02:07:19;96703.00;;;15.24;82.74
32761;BME280;19126;47.472;7.850;2023-06-26T02:09:46;96705.88;;;15.22;82.29
32761;BME280;19126;47.472;7.850;2023-06-26T02:12:14;96699.97;;;15.20;81.43
32761;BME280;19126;47.472;7.850;2023-06-26T02:14:41;96700.97;;;15.19;81.29
32761;BME280;19126;47.472;7.850;2023-06-26T02:17:10;96703.00;;;15.17;82.72
32761;BME280;19126;47.472;7.850;2023-06-26T02:19:37;96699.75;;;15.15;82.77
32761;BME280;19126;47.472;7.850;2023-06-26T02:22:13;96698.31;;;15.13;82.41
32761;BME280;19126;47.472;7.850;2023-06-26T02:24:41;96706.25;;;15.13;82.74
32761;BME280;19126;47.472;7.850;2023-06-26T02:27:09;96700.16;;;15.12;82.23
32761;BME280;19126;47.472;7.850;2023-06-26T02:29:37;96696.91;;;15.10;82.24
32761;BME280;19126;47.472;7.850;2023-06-26T02:32:05;96704.22;;;15.15;82.57
32761;BME280;19126;47.472;7.850;2023-06-26T02:34:34;96698.94;;;15.08;83.17
32761;BME280;19126;47.472;7.850;2023-06-26T02:37:02;96694.44;;;15.02;83.10
32761;BME280;19126;47.472;7.850;2023-06-26T02:39:29;96699.31;;;14.98;82.42
32761;BME280;19126;47.472;7.850;2023-06-26T02:41:56;96706.44;;;14.98;80.76
32761;BME280;19126;47.472;7.850;2023-06-26T02:44:24;96703.59;;;14.99;81.01
32761;BME280;19126;47.472;7.850;2023-06-26T02:46:52;96713.75;;;14.96;80.18
32761;BME280;19126;47.472;7.850;2023-06-26T02:49:19;96707.03;;;14.93;79.03
32761;BME280;19126;47.472;7.850;2023-06-26T02:51:48;96709.88;;;14.91;79.42
32761;BME280;19126;47.472;7.850;2023-06-26T02:54:15;96711.09;;;14.89;80.00
32761;BME280;19126;47.472;7.850;2023-06-26T02:56:42;96710.47;;;14.87;81.27
32761;BME280;19126;47.472;7.850;2023-06-26T02:59:10;96710.69;;;14.85;80.82
32761;BME280;19126;47.472;7.850;2023-06-26T03:01:37;96710.88;;;14.84;80.95
32761;BME280;19126;47.472;7.850;2023-06-26T03:04:05;96714.75;;;14.81;80.85
32761;BME280;19126;47.472;7.850;2023-06-26T03:06:32;96716.78;;;14.79;80.76
32761;BME280;19126;47.472;7.850;2023-06-26T03:09:01;96715.94;;;14.78;80.88
32761;BME280;19126;47.472;7.850;2023-06-26T03:11:28;96709.00;;;14.77;81.24
32761;BME280;19126;47.472;7.850;2023-06-26T03:13:55;96712.88;;;14.75;82.43
32761;BME280;19126;47.472;7.850;2023-06-26T03:16:23;96714.53;;;14.76;82.40
32761;BME280;19126;47.472;7.850;2023-06-26T03:18:50;96715.53;;;14.75;82.35
32761;BME280;19126;47.472;7.850;2023-06-26T03:21:18;96713.91;;;14.74;81.75
32761;BME280;19126;47.472;7.850;2023-06-26T03:23:45;96712.88;;;14.75;82.02
32761;BME280;19126;47.472;7.850;2023-06-26T03:26:14;96711.66;;;14.71;82.50
32761;BME280;19126;47.472;7.850;2023-06-26T03:28:41;96712.03;;;14.68;82.57
32761;BME280;19126;47.472;7.850;2023-06-26T03:31:09;96709.56;;;14.66;82.43
32761;BME280;19126;47.472;7.850;2023-06-26T03:33:37;96713.22;;;14.65;83.39
32761;BME280;19126;47.472;7.850;2023-06-26T03:36:05;96720.97;;;14.67;83.41
32761;BME280;19126;47.472;7.850;2023-06-26T03:38:33;96717.50;;;14.66;84.02
32761;BME280;19126;47.472;7.850;2023-06-26T03:41:00;96712.81;;;14.68;84.40
32761;BME280;19126;47.472;7.850;2023-06-26T03:43:29;96718.09;;;14.68;84.18
32761;BME280;19126;47.472;7.850;2023-06-26T03:45:56;96714.44;;;14.69;83.93
32761;BME280;19126;47.472;7.850;2023-06-26T03:48:24;96707.13;;;14.64;83.72
32761;BME280;19126;47.472;7.850;2023-06-26T03:50:51;96716.06;;;14.63;84.62
32761;BME280;19126;47.472;7.850;2023-06-26T03:53:18;96724.63;;;14.65;84.45
32761;BME280;19126;47.472;7.850;2023-06-26T03:55:46;96716.06;;;14.63;85.06
32761;BME280;19126;47.472;7.850;2023-06-26T03:58:13;96725.03;;;14.62;84.99
32761;BME280;19126;47.472;7.850;2023-06-26T04:00:42;96723.78;;;14.65;85.22
32761;BME280;19126;47.472;7.850;2023-06-26T04:03:09;96727.06;;;14.67;85.85
32761;BME280;19126;47.472;7.850;2023-06-26T04:05:37;96725.03;;;14.69;85.70
32761;BME280;19126;47.472;7.850;2023-06-26T04:08:04;96728.13;;;14.73;86.19
32761;BME280;19126;47.472;7.850;2023-06-26T04:10:31;96730.78;;;14.73;85.36
32761;BME280;19126;47.472;7.850;2023-06-26T04:12:59;96734.84;;;14.75;84.44
32761;BME280;19126;47.472;7.850;2023-06-26T04:15:26;96739.13;;;14.76;84.09
32761;BME280;19126;47.472;7.850;2023-06-26T04:17:55;96742.00;;;14.82;83.54
32761;BME280;19126;47.472;7.850;2023-06-26T04:20:22;96744.22;;;14.85;83.29
32761;BME280;19126;47.472;7.850;2023-06-26T04:22:50;96746.47;;;14.88;83.29
32761;BME280;19126;47.472;7.850;2023-06-26T04:25:17;96739.38;;;14.95;83.31
32761;BME280;19126;47.472;7.850;2023-06-26T04:27:44;96746.69;;;14.93;83.27
32761;BME280;19126;47.472;7.850;2023-06-26T04:30:13;96742.03;;;14.95;83.44
32761;BME280;19126;47.472;7.850;2023-06-26T04:32:40;96747.53;;;15.00;83.67
32761;BME280;19126;47.472;7.850;2023-06-26T04:35:09;96746.53;;;15.01;82.09
32761;BME280;19126;47.472;7.850;2023-06-26T04:37:37;96747.53;;;15.00;81.13
32761;BME280;19126;47.472;7.850;2023-06-26T04:40:06;96746.13;;;15.04;79.07
32761;BME280;19126;47.472;7.850;2023-06-26T04:42:35;96743.91;;;15.08;78.95
32761;BME280;19126;47.472;7.850;2023-06-26T04:45:03;96742.28;;;15.14;78.13
32761;BME280;19126;47.472;7.850;2023-06-26T04:47:31;96739.22;;;15.17;76.96
32761;BME280;19126;47.472;7.850;2023-06-26T04:49:58;96743.53;;;15.24;76.59
32761;BME280;19126;47.472;7.850;2023-06-26T04:52:27;96742.50;;;15.32;75.35
32761;BME280;19126;47.472;7.850;2023-06-26T04:54:54;96748.63;;;15.39;75.48
32761;BME280;19126;47.472;7.850;2023-06-26T04:57:21;96752.09;;;15.47;75.72
32761;BME280;19126;47.472;7.850;2023-06-26T04:59:48;96744.97;;;15.54;75.81
32761;BME280;19126;47.472;7.850;2023-06-26T05:02:16;96744.16;;;15.60;75.32
32761;BME280;19126;47.472;7.850;2023-06-26T05:04:43;96739.06;;;15.65;75.58
32761;BME280;19126;47.472;7.850;2023-06-26T05:07:12;96740.13;;;15.71;77.08
32761;BME280;19126;47.472;7.850;2023-06-26T05:09:41;96742.75;;;15.78;77.07
32761;BME280;19126;47.472;7.850;2023-06-26T05:12:08;96736.44;;;15.86;79.05
32761;BME280;19126;47.472;7.850;2023-06-26T05:14:36;96742.97;;;16.03;81.20
32761;BME280;19126;47.472;7.850;2023-06-26T05:17:04;96748.78;;;16.46;84.10
32761;BME280;19126;47.472;7.850;2023-06-26T05:19:31;96739.88;;;16.85;88.29
32761;BME280;19126;47.472;7.850;2023-06-26T05:21:59;96742.19;;;17.21;95.34
32761;BME280;19126;47.472;7.850;2023-06-26T05:24:30;96739.94;;;17.50;100.00
32761;BME280;19126;47.472;7.850;2023-06-26T05:27:00;96750.53;;;17.82;100.00
32761;BME280;19126;47.472;7.850;2023-06-26T05:29:30;96747.81;;;18.14;100.00
32761;BME280;19126;47.472;7.850;2023-06-26T05:31:58;96746.75;;;18.40;100.00
32761;BME280;19126;47.472;7.850;2023-06-26T05:34:27;96752.94;;;18.71;100.00
32761;BME280;19126;47.472;7.850;2023-06-26T05:36:58;96739.84;;;19.07;100.00
32761;BME280;19126;47.472;7.850;2023-06-26T05:39:26;96749.44;;;19.39;100.00
32761;BME280;19126;47.472;7.850;2023-06-26T05:41:54;96742.91;;;19.65;100.00
32761;BME280;19126;47.472;7.850;2023-06-26T05:44:24;96741.53;;;19.86;100.00
32761;BME280;19126;47.472;7.850;2023-06-26T05:46:51;96753.06;;;20.11;100.00
32761;BME280;19126;47.472;7.850;2023-06-26T05:49:19;96758.94;;;20.37;100.00
32761;BME280;19126;47.472;7.850;2023-06-26T05:51:47;96765.06;;;20.61;100.00
32761;BME280;19126;47.472;7.850;2023-06-26T05:54:15;96756.69;;;20.81;94.30
32761;BME280;19126;47.472;7.850;2023-06-26T05:56:43;96754.28;;;21.08;92.11
32761;BME280;19126;47.472;7.850;2023-06-26T05:59:11;96752.81;;;21.30;92.49
32761;BME280;19126;47.472;7.850;2023-06-26T06:01:40;96753.47;;;21.54;91.30
32761;BME280;19126;47.472;7.850;2023-06-26T06:04:07;96746.84;;;21.57;89.31
32761;BME280;19126;47.472;7.850;2023-06-26T06:06:35;96750.06;;;21.88;93.19
32761;BME280;19126;47.472;7.850;2023-06-26T06:09:02;96758.63;;;22.07;89.62
32761;BME280;19126;47.472;7.850;2023-06-26T06:11:29;96751.88;;;22.21;87.48
32761;BME280;19126;47.472;7.850;2023-06-26T06:13:57;96752.25;;;22.47;82.97
32761;BME280;19126;47.472;7.850;2023-06-26T06:16:25;96754.03;;;22.81;85.59
32761;BME280;19126;47.472;7.850;2023-06-26T06:18:56;96754.00;;;23.03;80.68
32761;BME280;19126;47.472;7.850;2023-06-26T06:21:23;96750.75;;;23.23;80.87
32761;BME280;19126;47.472;7.850;2023-06-26T06:23:50;96757.84;;;23.35;77.09
32761;BME280;19126;47.472;7.850;2023-06-26T06:26:18;96750.91;;;23.66;79.02
32761;BME280;19126;47.472;7.850;2023-06-26T06:28:45;96751.88;;;23.88;80.88
32761;BME280;19126;47.472;7.850;2023-06-26T06:31:12;96744.22;;;24.02;77.62
32761;BME280;19126;47.472;7.850;2023-06-26T06:33:40;96746.72;;;24.13;78.66
32761;BME280;19126;47.472;7.850;2023-06-26T06:36:09;96748.69;;;24.34;78.75
32761;BME280;19126;47.472;7.850;2023-06-26T06:38:36;96754.19;;;24.54;74.81
32761;BME280;19126;47.472;7.850;2023-06-26T06:41:03;96751.38;;;24.77;75.59
32761;BME280;19126;47.472;7.850;2023-06-26T06:43:31;96753.31;;;24.97;73.62
32761;BME280;19126;47.472;7.850;2023-06-26T06:45:58;96756.56;;;25.09;75.71
32761;BME280;19126;47.472;7.850;2023-06-26T06:48:25;96760.63;;;25.12;73.16
32761;BME280;19126;47.472;7.850;2023-06-26T06:50:53;96759.59;;;25.34;70.36
32761;BME280;19126;47.472;7.850;2023-06-26T06:53:21;96763.63;;;25.36;69.71
32761;BME280;19126;47.472;7.850;2023-06-26T06:55:49;96763.94;;;25.66;69.48
32761;BME280;19126;47.472;7.850;2023-06-26T06:58:16;96762.88;;;25.72;67.21
32761;BME280;19126;47.472;7.850;2023-06-26T07:00:45;96761.00;;;25.93;65.73
32761;BME280;19126;47.472;7.850;2023-06-26T07:03:12;96760.97;;;26.14;66.76
32761;BME280;19126;47.472;7.850;2023-06-26T07:05:42;96759.84;;;26.51;66.71
32761;BME280;19126;47.472;7.850;2023-06-26T07:08:09;96765.41;;;26.91;64.81
32761;BME280;19126;47.472;7.850;2023-06-26T07:10:38;96767.97;;;27.17;62.84
32761;BME280;19126;47.472;7.850;2023-06-26T07:13:05;96772.19;;;27.33;60.20
32761;BME280;19126;47.472;7.850;2023-06-26T07:15:32;96772.38;;;27.42;61.43
32761;BME280;19126;47.472;7.850;2023-06-26T07:18:00;96769.00;;;27.66;60.21
32761;BME280;19126;47.472;7.850;2023-06-26T07:20:27;96773.84;;;28.04;60.85
32761;BME280;19126;47.472;7.850;2023-06-26T07:22:54;96778.41;;;28.38;60.42
32761;BME280;19126;47.472;7.850;2023-06-26T07:25:21;96776.97;;;28.70;57.90
32761;BME280;19126;47.472;7.850;2023-06-26T07:27:50;96772.97;;;28.67;51.80
32761;BME280;19126;47.472;7.850;2023-06-26T07:30:17;96778.22;;;28.83;53.27
32761;BME280;19126;47.472;7.850;2023-06-26T07:32:45;96776.13;;;28.75;52.62
32761;BME280;19126;47.472;7.850;2023-06-26T07:35:13;96769.63;;;28.76;53.12
32761;BME280;19126;47.472;7.850;2023-06-26T07:37:40;96768.00;;;28.50;52.95
32761;BME280;19126;47.472;7.850;2023-06-26T07:40:09;96775.88;;;28.71;56.97
32761;BME280;19126;47.472;7.850;2023-06-26T07:42:36;96766.94;;;28.76;51.11
32761;BME280;19126;47.472;7.850;2023-06-26T07:45:06;96773.59;;;28.84;52.13
32761;BME280;19126;47.472;7.850;2023-06-26T07:47:36;96779.31;;;28.82;50.58
32761;BME280;19126;47.472;7.850;2023-06-26T07:50:04;96775.53;;;28.83;50.39
32761;BME280;19126;47.472;7.850;2023-06-26T07:52:32;96768.47;;;28.58;50.02
32761;BME280;19126;47.472;7.850;2023-06-26T07:54:59;96771.81;;;28.74;54.95
32761;BME280;19126;47.472;7.850;2023-06-26T07:57:26;96769.84;;;29.04;55.84
32761;BME280;19126;47.472;7.850;2023-06-26T07:59:54;96779.31;;;29.25;54.86
32761;BME280;19126;47.472;7.850;2023-06-26T08:02:23;96776.97;;;29.38;52.26
32761;BME280;19126;47.472;7.850;2023-06-26T08:04:50;96778.28;;;29.60;52.91
32761;BME280;19126;47.472;7.850;2023-06-26T08:07:17;96781.34;;;29.91;52.01
32761;BME280;19126;47.472;7.850;2023-06-26T08:09:45;96775.50;;;30.17;51.94
32761;BME280;19126;47.472;7.850;2023-06-26T08:12:12;96777.44;;;30.31;51.17
32761;BME280;19126;47.472;7.850;2023-06-26T08:14:40;96774.13;;;30.48;50.13
32761;BME280;19126;47.472;7.850;2023-06-26T08:17:07;96777.38;;;30.50;52.40
32761;BME280;19126;47.472;7.850;2023-06-26T08:19:36;96771.56;;;30.84;53.57
32761;BME280;19126;47.472;7.850;2023-06-26T08:22:03;96773.56;;;31.07;49.97
32761;BME280;19126;47.472;7.850;2023-06-26T08:24:31;96785.03;;;30.76;49.14
32761;BME280;19126;47.472;7.850;2023-06-26T08:26:58;96777.53;;;30.39;52.63
32761;BME280;19126;47.472;7.850;2023-06-26T08:29:25;96778.53;;;30.30;54.05
32761;BME280;19126;47.472;7.850;2023-06-26T08:31:53;96776.22;;;30.23;54.11
32761;BME280;19126;47.472;7.850;2023-06-26T08:34:20;96772.88;;;30.12;52.92
32761;BME280;19126;47.472;7.850;2023-06-26T08:36:49;96775.53;;;29.98;54.90
32761;BME280;19126;47.472;7.850;2023-06-26T08:39:16;96770.09;;;30.31;55.05
32761;BME280;19126;47.472;7.850;2023-06-26T08:41:45;96773.06;;;30.63;52.92
32761;BME280;19126;47.472;7.850;2023-06-26T08:44:12;96776.66;;;31.00;51.87
32761;BME280;19126;47.472;7.850;2023-06-26T08:46:39;96774.63;;;31.34;49.68
32761;BME280;19126;47.472;7.850;2023-06-26T08:49:14;96777.78;;;31.72;52.73
32761;BME280;19126;47.472;7.850;2023-06-26T08:51:52;96771.97;;;31.79;47.21
32761;BME280;19126;47.472;7.850;2023-06-26T08:54:29;96781.41;;;32.05;49.69
32761;BME280;19126;47.472;7.850;2023-06-26T08:56:59;96774.47;;;32.21;49.63
32761;BME280;19126;47.472;7.850;2023-06-26T08:59:28;96776.66;;;32.42;48.64
32761;BME280;19126;47.472;7.850;2023-06-26T09:01:55;96778.91;;;32.49;48.56
32761;BME280;19126;47.472;7.850;2023-06-26T09:04:23;96777.22;;;32.62;48.03
32761;BME280;19126;47.472;7.850;2023-06-26T09:06:52;96779.75;;;32.58;46.87
32761;BME280;19126;47.472;7.850;2023-06-26T09:09:19;96780.63;;;32.36;47.34
32761;BME280;19126;47.472;7.850;2023-06-26T09:11:46;96779.19;;;32.38;48.22
32761;BME280;19126;47.472;7.850;2023-06-26T09:14:14;96779.66;;;32.32;48.03
32761;BME280;19126;47.472;7.850;2023-06-26T09:16:41;96775.91;;;32.50;48.35
32761;BME280;19126;47.472;7.850;2023-06-26T09:19:10;96784.91;;;32.59;46.83
32761;BME280;19126;47.472;7.850;2023-06-26T09:21:39;96785.41;;;32.70;46.70
32761;BME280;19126;47.472;7.850;2023-06-26T09:24:09;96783.50;;;32.71;47.58
32761;BME280;19126;47.472;7.850;2023-06-26T09:26:38;96791.75;;;32.88;48.79
32761;BME280;19126;47.472;7.850;2023-06-26T09:29:06;96782.66;;;33.11;49.67
32761;BME280;19126;47.472;7.850;2023-06-26T09:31:35;96788.13;;;33.20;46.80
32761;BME280;19126;47.472;7.850;2023-06-26T09:34:02;96780.75;;;33.11;46.21
32761;BME280;19126;47.472;7.850;2023-06-26T09:36:32;96780.88;;;33.06;46.80
32761;BME280;19126;47.472;7.850;2023-06-26T09:39:01;96783.47;;;33.11;47.11
32761;BME280;19126;47.472;7.850;2023-06-26T09:41:30;96780.59;;;33.25;47.17
32761;BME280;19126;47.472;7.850;2023-06-26T09:44:02;96784.72;;;33.05;47.95
32761;BME280;19126;47.472;7.850;2023-06-26T09:46:30;96778.28;;;32.92;46.96
32761;BME280;19126;47.472;7.850;2023-06-26T09:49:03;96780.72;;;33.02;47.28
32761;BME280;19126;47.472;7.850;2023-06-26T09:51:31;96777.56;;;33.27;48.50
32761;BME280;19126;47.472;7.850;2023-06-26T09:53:59;96776.97;;;33.56;49.43
32761;BME280;19126;47.472;7.850;2023-06-26T09:56:28;96783.84;;;33.54;47.98
32761;BME280;19126;47.472;7.850;2023-06-26T09:58:59;96785.13;;;33.74;46.04
32761;BME280;19126;47.472;7.850;2023-06-26T10:01:28;96776.47;;;33.63;48.71
32761;BME280;19126;47.472;7.850;2023-06-26T10:03:57;96782.06;;;33.40;49.38
32761;BME280;19126;47.472;7.850;2023-06-26T10:06:31;96784.63;;;33.63;47.93
32761;BME280;19126;47.472;7.850;2023-06-26T10:09:00;96782.72;;;33.55;47.75
32761;BME280;19126;47.472;7.850;2023-06-26T10:11:34;96778.06;;;33.46;45.99
32761;BME280;19126;47.472;7.850;2023-06-26T10:14:07;96788.78;;;33.69;47.93
32761;BME280;19126;47.472;7.850;2023-06-26T10:16:37;96781.75;;;33.95;47.80
32761;BME280;19126;47.472;7.850;2023-06-26T10:19:08;96788.31;;;33.85;47.38
32761;BME280;19126;47.472;7.850;2023-06-26T10:21:38;96785.91;;;33.57;47.27
32761;BME280;19126;47.472;7.850;2023-06-26T10:24:07;96791.28;;;33.04;48.21
32761;BME280;19126;47.472;7.850;2023-06-26T10:26:42;96781.69;;;32.66;50.55
32761;BME280;19126;47.472;7.850;2023-06-26T10:29:15;96794.44;;;32.48;49.02
32761;BME280;19126;47.472;7.850;2023-06-26T10:31:47;96799.41;;;32.23;49.64
32761;BME280;19126;47.472;7.850;2023-06-26T10:34:17;96803.22;;;32.45;51.66
32761;BME280;19126;47.472;7.850;2023-06-26T10:36:45;96811.56;;;32.49;49.79
32761;BME280;19126;47.472;7.850;2023-06-26T10:39:17;96812.31;;;32.18;51.56
32761;BME280;19126;47.472;7.850;2023-06-26T10:41:45;96811.44;;;31.99;50.94
32761;BME280;19126;47.472;7.850;2023-06-26T10:44:17;96815.03;;;32.40;52.22
32761;BME280;19126;47.472;7.850;2023-06-26T10:46:54;96805.75;;;32.82;52.10
32761;BME280;19126;47.472;7.850;2023-06-26T10:49:26;96814.34;;;32.66;50.11
32761;BME280;19126;47.472;7.850;2023-06-26T10:51:55;96815.09;;;32.49;50.94
32761;BME280;19126;47.472;7.850;2023-06-26T10:54:30;96827.34;;;31.92;51.13
32761;BME280;19126;47.472;7.850;2023-06-26T10:56:58;96826.41;;;31.60;52.37
32761;BME280;19126;47.472;7.850;2023-06-26T10:59:31;96824.34;;;31.80;51.18
32761;BME280;19126;47.472;7.850;2023-06-26T11:02:00;96834.06;;;32.18;52.42
32761;BME280;19126;47.472;7.850;2023-06-26T11:04:39;96830.97;;;32.33;50.54
32761;BME280;19126;47.472;7.850;2023-06-26T11:07:19;96825.06;;;32.31;49.34
32761;BME280;19126;47.472;7.850;2023-06-26T11:09:57;96840.69;;;32.57;48.32
32761;BME280;19126;47.472;7.850;2023-06-26T11:12:38;96834.34;;;32.70;48.26
32761;BME280;19126;47.472;7.850;2023-06-26T11:15:09;96835.44;;;32.92;48.24
32761;BME280;19126;47.472;7.850;2023-06-26T11:17:37;96838.03;;;33.06;46.91
32761;BME280;19126;47.472;7.850;2023-06-26T11:20:06;96834.97;;;32.99;47.99
32761;BME280;19126;47.472;7.850;2023-06-26T11:22:37;96839.19;;;33.14;46.24
32761;BME280;19126;47.472;7.850;2023-06-26T11:25:06;96834.78;;;32.95;45.03
32761;BME280;19126;47.472;7.850;2023-06-26T11:27:38;96843.63;;;33.10;45.80
32761;BME280;19126;47.472;7.850;2023-06-26T11:30:09;96838.81;;;33.07;43.86
32761;BME280;19126;47.472;7.850;2023-06-26T11:32:37;96836.97;;;33.25;42.56
32761;BME280;19126;47.472;7.850;2023-06-26T11:35:06;96827.13;;;32.97;43.05
32761;BME280;19126;47.472;7.850;2023-06-26T11:37:33;96828.06;;;32.93;45.45
32761;BME280;19126;47.472;7.850;2023-06-26T11:40:17;96843.78;;;32.96;45.48
32761;BME280;19126;47.472;7.850;2023-06-26T11:42:45;96837.69;;;32.58;43.73
32761;BME280;19126;47.472;7.850;2023-06-26T11:45:14;96838.31;;;32.55;43.48
32761;BME280;19126;47.472;7.850;2023-06-26T11:47:41;96845.50;;;32.06;44.96
32761;BME280;19126;47.472;7.850;2023-06-26T11:50:15;96839.13;;;31.73;46.71
32761;BME280;19126;47.472;7.850;2023-06-26T11:52:43;96836.22;;;31.33;46.27
32761;BME280;19126;47.472;7.850;2023-06-26T11:55:11;96830.28;;;31.45;46.30
32761;BME280;19126;47.472;7.850;2023-06-26T11:57:38;96838.06;;;31.75;46.70
32761;BME280;19126;47.472;7.850;2023-06-26T12:00:14;96838.34;;;31.87;45.55
32761;BME280;19126;47.472;7.850;2023-06-26T12:02:43;96829.19;;;32.06;48.05
32761;BME280;19126;47.472;7.850;2023-06-26T12:05:11;96823.31;;;32.35;46.19
32761;BME280;19126;47.472;7.850;2023-06-26T12:07:40;96826.00;;;32.58;47.15
32761;BME280;19126;47.472;7.850;2023-06-26T12:10:09;96823.00;;;32.68;47.56
32761;BME280;19126;47.472;7.850;2023-06-26T12:12:38;96820.28;;;32.68;46.91
32761;BME280;19126;47.472;7.850;2023-06-26T12:15:08;96825.03;;;32.94;48.36
32761;BME280;19126;47.472;7.850;2023-06-26T12:17:39;96823.72;;;32.51;43.52
32761;BME280;19126;47.472;7.850;2023-06-26T12:20:18;96826.84;;;32.13;45.02
32761;BME280;19126;47.472;7.850;2023-06-26T12:22:46;96819.44;;;32.05;48.92
32761;BME280;19126;47.472;7.850;2023-06-26T12:25:15;96821.56;;;31.71;47.61
32761;BME280;19126;47.472;7.850;2023-06-26T12:27:45;96826.00;;;31.81;49.27
32761;BME280;19126;47.472;7.850;2023-06-26T12:30:13;96822.06;;;31.73;47.11
32761;BME280;19126;47.472;7.850;2023-06-26T12:32:46;96837.53;;;31.72;47.53
32761;BME280;19126;47.472;7.850;2023-06-26T12:35:14;96822.78;;;31.14;48.86
32761;BME280;19126;47.472;7.850;2023-06-26T12:37:43;96815.34;;;31.20;50.48
32761;BME280;19126;47.472;7.850;2023-06-26T12:40:20;96829.00;;;31.14;49.78
32761;BME280;19126;47.472;7.850;2023-06-26T12:42:49;96840.78;;;31.24;49.90
32761;BME280;19126;47.472;7.850;2023-06-26T12:45:16;96836.56;;;31.32;49.33
32761;BME280;19126;47.472;7.850;2023-06-26T12:47:45;96836.44;;;31.23;49.86
32761;BME280;19126;47.472;7.850;2023-06-26T12:50:12;96832.13;;;31.36;48.88
32761;BME280;19126;47.472;7.850;2023-06-26T12:52:39;96834.13;;;31.30;49.68
32761;BME280;19126;47.472;7.850;2023-06-26T12:55:08;96834.16;;;31.67;49.97
32761;BME280;19126;47.472;7.850;2023-06-26T12:57:35;96841.44;;;31.16;47.73
32761;BME280;19126;47.472;7.850;2023-06-26T13:00:03;96819.25;;;31.13;49.05
32761;BME280;19126;47.472;7.850;2023-06-26T13:02:31;96818.31;;;31.46;50.78
32761;BME280;19126;47.472;7.850;2023-06-26T13:04:59;96822.25;;;31.77;50.96
32761;BME280;19126;47.472;7.850;2023-06-26T13:07:27;96814.69;;;31.88;48.56
32761;BME280;19126;47.472;7.850;2023-06-26T13:09:54;96816.91;;;32.08;49.17